Moline, Illinois
Current Conditions -  °F | °C
As of 10:52 PM on Tuesday 21 Oct 2014 (Local Time) from KMLI Reporting Station
Clear Clear  
Wind Chill: 36°   Ceiling: Unl
Heat Index: 40°   Visibility: 10mi
Dew Point: 35°   Wind: 6mph
Humidity: 83%   Direction: 90°E
Pressure: 30.26"   Gusts: NA
Location:  41.49°N, 90.49°W
Report Text: KMLI 220352Z AUTO 09005KT 10SM CLR 04/02 A3026 RMK AO2 SLP248 T00440017 $
Loading
Personal Weather Stations






























Interactive Weather Map New forecast layout! Learn more

10-Day Weather Forecast

Advertisements
Track Severe Weather on mobile